Weather at Sharp Chula Vista Medical Center Heliport [CLOSED]

Public forecast

Using degrees Fahrenheit for public forecast. Weather courtesy of forecast.io.

Closest aviation weather report (METAR) to Sharp Chula Vista Medical Center Heliport

Report is more than 6 hours old.

Closest report is Brown Field Municipal Airport, 3.6 nm (6.6 km) SE.

2022/11/14 14:53 (retrieved 2 years ago)

KSDM 141453Z AUTO 15004KT 9SM CLR 08/02 A3010 RMK AO2 SLP191 T00830022 53004

Closest aviation forecast (TAF) to Sharp Chula Vista Medical Center Heliport

Forecast is more than 12 hours old.

Closest forecast is General Abelardo L. Rodríguez International Airport, 5.4 nm (10.0 km) SSE.

2023/02/22 18:36 (retrieved 1 year ago)

TAF MMTJ 221627Z 2218/2318 26020G30KT 6SM -RA SCT015 BKN030 TX12/2221Z TN07/2312Z TEMPO 2221/2301 4SM -RA OVC015 FM230100 28010KT 5SM HZ SCT015 BKN030 TEMPO 2310/2314 3SM DZ BR OVC005 FM231400 24010KT 5SM-RA BKN015 OVC070